Latest Weather Observations for Fort Denison

IDN60901

Issued at 1:51 pm EDT Tuesday 30 November 2021 (issued every 10 minutes, with the page automatically refreshed every 10 minutes)

About weather observations | Map of Sydney area stations | Latest observations for Sydney area | Other Formats
Station Details ID: 066022 Name: FORT DENISON Lat: -33.86 Lon: 151.23 Height: 5.0 m
Data from the previous 72 hours. | See also: Recent months for locations in New South Wales
Date/Time
EDT
Temp
°C
App
Temp
°C
Dew
Point
°C
Rel
Hum
%
Delta-T
°C
Wind Press
QNH
hPa
Press
MSL
hPa
Rain since
9am
mm
Dir  Spd
km/h
Gust
km/h
Spd
kts
Gust
kts
30/01:30pm - - - - - ESE 6 9 3 5 - - -
30/01:00pm - - - - - ESE 11 15 6 8 - - -
30/12:30pm - - - - - ENE 4 7 2 4 - - -
30/12:00pm - - - - - ENE 4 6 2 3 - - -
30/11:30am - - - - - E 6 9 3 5 - - -
30/11:00am - - - - - ESE 9 11 5 6 - - -
30/10:30am - - - - - ENE 6 7 3 4 - - -
30/10:00am - - - - - E 4 6 2 3 - - -
30/09:30am - - - - - E 6 7 3 4 - - -
30/09:00am - - - - - E 6 7 3 4 - - -
30/08:30am - - - - - E 6 7 3 4 - - -
30/08:00am - - - - - SE 2 6 1 3 - - -
30/07:30am - - - - - S 6 9 3 5 - - -
30/07:00am - - - - - S 6 9 3 5 - - -
30/06:30am - - - - - SSE 7 9 4 5 - - -
30/06:00am - - - - - SSE 6 7 3 4 - - -
30/05:30am - - - - - SE 2 6 1 3 - - -
30/05:00am - - - - - W 7 9 4 5 - - -
30/04:30am - - - - - W 7 9 4 5 - - -
30/04:00am - - - - - WSW 4 7 2 4 - - -
30/03:30am - - - - - W 11 13 6 7 - - -
30/03:00am - - - - - WNW 6 7 3 4 - - -
30/02:30am - - - - - SW 4 6 2 3 - - -
30/02:00am - - - - - NE 4 7 2 4 - - -
30/01:30am - - - - - NE 6 7 3 4 - - -
30/01:00am - - - - - NNE 6 9 3 5 - - -
30/12:30am - - - - - NNE 4 7 2 4 - - -
30/12:00am - - - - - NE 6 11 3 6 - - -
 
Date/Time
EDT
Temp
°C
App
Temp
°C
Dew
Point
°C
Rel
Hum
%
Delta-T
°C
Wind Press
QNH
hPa
Press
MSL
hPa
Rain since
9am
mm
Dir  Spd
km/h
Gust
km/h
Spd
kts
Gust
kts
29/11:30pm - - - - - NE 7 11 4 6 - - -
29/11:00pm - - - - - ENE 7 11 4 6 - - -
29/10:30pm - - - - - ENE 9 13 5 7 - - -
29/10:00pm - - - - - ENE 11 17 6 9 - - -
29/09:30pm - - - - - ENE 9 15 5 8 - - -
29/09:00pm - - - - - ENE 9 11 5 6 - - -
29/08:30pm - - - - - ENE 11 15 6 8 - - -
29/08:00pm - - - - - ENE 15 20 8 11 - - -
29/07:30pm - - - - - E 15 20 8 11 - - -
29/07:00pm - - - - - E 17 20 9 11 - - -
29/06:30pm - - - - - E 17 19 9 10 - - -
29/06:00pm - - - - - E 17 20 9 11 - - -
29/05:30pm - - - - - E 17 24 9 13 - - -
29/05:00pm - - - - - E 15 19 8 10 - - -
29/04:30pm - - - - - E 15 19 8 10 - - -
29/04:00pm - - - - - E 15 19 8 10 - - -
29/03:30pm - - - - - E 13 17 7 9 - - -
29/03:00pm - - - - - E 13 17 7 9 - - -
29/02:30pm - - - - - E 15 17 8 9 - - -
29/02:00pm - - - - - E 15 17 8 9 - - -
29/01:30pm - - - - - ESE 13 17 7 9 - - -
29/01:00pm - - - - - E 17 19 9 10 - - -
29/12:30pm - - - - - ESE 15 19 8 10 - - -
29/12:00pm - - - - - ESE 11 15 6 8 - - -
29/11:30am - - - - - ESE 13 19 7 10 - - -
29/11:00am - - - - - SE 13 19 7 10 - - -
29/10:30am - - - - - SE 4 9 2 5 - - -
29/10:00am - - - - - S 4 7 2 4 - - -
29/09:30am - - - - - SW 6 13 3 7 - - -
29/09:00am - - - - - S 11 19 6 10 - - -
29/08:30am - - - - - SSW 7 15 4 8 - - -
29/08:00am - - - - - W 9 13 5 7 - - -
29/07:30am - - - - - W 13 17 7 9 - - -
29/07:00am - - - - - WNW 15 19 8 10 - - -
29/06:30am - - - - - WNW 9 11 5 6 - - -
29/06:00am - - - - - WNW 13 17 7 9 - - -
29/05:30am - - - - - W 13 20 7 11 - - -
29/05:00am - - - - - W 15 20 8 11 - - -
29/04:30am - - - - - W 17 20 9 11 - - -
29/04:00am - - - - - W 17 24 9 13 - - -
29/03:30am - - - - - W 17 19 9 10 - - -
29/03:00am - - - - - W 13 19 7 10 - - -
29/02:30am - - - - - W 15 19 8 10 - - -
29/02:00am - - - - - W 17 20 9 11 - - -
29/01:30am - - - - - W 17 19 9 10 - - -
29/01:00am - - - - - WNW 13 19 7 10 - - -
29/12:30am - - - - - SW 15 20 8 11 - - -
29/12:00am - - - - - SSW 15 22 8 12 - - -
 
Date/Time
EDT
Temp
°C
App
Temp
°C
Dew
Point
°C
Rel
Hum
%
Delta-T
°C
Wind Press
QNH
hPa
Press
MSL
hPa
Rain since
9am
mm
Dir  Spd
km/h
Gust
km/h
Spd
kts
Gust
kts
28/11:30pm - - - - - SSW 13 19 7 10 - - -
28/11:00pm - - - - - SSW 11 19 6 10 - - -
28/10:30pm - - - - - SSW 11 22 6 12 - - -
28/10:00pm - - - - - S 13 20 7 11 - - -
28/09:30pm - - - - - SSW 15 26 8 14 - - -
28/09:00pm - - - - - S 15 24 8 13 - - -
28/08:30pm - - - - - S 19 35 10 19 - - -
28/08:00pm - - - - - S 20 30 11 16 - - -
28/07:30pm - - - - - S 19 30 10 16 - - -
28/07:00pm - - - - - SSW 20 33 11 18 - - -
28/06:30pm - - - - - S 20 28 11 15 - - -
28/06:00pm - - - - - SSE 22 37 12 20 - - -
28/05:30pm - - - - - SSE 30 43 16 23 - - -
28/05:00pm - - - - - SSE 32 39 17 21 - - -
28/04:30pm - - - - - S 26 43 14 23 - - -
28/04:00pm - - - - - S 24 43 13 23 - - -
28/03:30pm - - - - - S 22 39 12 21 - - -
28/03:00pm - - - - - S 26 39 14 21 - - -
28/02:30pm - - - - - SSE 28 39 15 21 - - -
28/02:00pm - - - - - S 24 41 13 22 - - -
28/01:30pm - - - - - S 26 41 14 22 - - -
28/01:00pm - - - - - S 22 35 12 19 - - -
28/12:30pm - - - - - S 26 39 14 21 - - -
28/12:00pm - - - - - S 22 33 12 18 - - -
28/11:30am - - - - - S 22 32 12 17 - - -
28/11:00am - - - - - S 28 39 15 21 - - -
28/10:30am - - - - - S 26 35 14 19 - - -
28/10:00am - - - - - S 30 43 16 23 - - -
28/09:30am - - - - - S 28 41 15 22 - - -
28/09:00am - - - - - SSE 28 44 15 24 - - -
28/08:49am - - - - - S 28 46 15 25 - - -
28/08:30am - - - - - S 24 39 13 21 - - -
28/08:00am - - - - - S 17 32 9 17 - - -
28/07:30am - - - - - S 22 37 12 20 - - -
28/07:00am - - - - - S 20 30 11 16 - - -
28/06:30am - - - - - S 19 33 10 18 - - -
28/06:00am - - - - - S 19 35 10 19 - - -
28/05:30am - - - - - S 20 35 11 19 - - -
28/05:00am - - - - - S 22 35 12 19 - - -
28/04:30am - - - - - S 19 28 10 15 - - -
28/04:00am - - - - - S 20 33 11 18 - - -
28/03:30am - - - - - S 22 33 12 18 - - -
28/03:00am - - - - - S 22 37 12 20 - - -
28/02:30am - - - - - S 17 28 9 15 - - -
28/02:00am - - - - - S 20 35 11 19 - - -
28/01:30am - - - - - S 19 33 10 18 - - -
28/01:00am - - - - - SSW 22 41 12 22 - - -
28/12:30am - - - - - S 22 35 12 19 - - -
28/12:00am - - - - - S 22 37 12 20 - - -
 
Date/Time
EDT
Temp
°C
App
Temp
°C
Dew
Point
°C
Rel
Hum
%
Delta-T
°C
Wind Press
QNH
hPa
Press
MSL
hPa
Rain since
9am
mm
Dir  Spd
km/h
Gust
km/h
Spd
kts
Gust
kts
27/11:30pm - - - - - S 20 30 11 16 - - -
27/11:00pm - - - - - S 19 35 10 19 - - -
27/10:30pm - - - - - S 20 33 11 18 - - -
27/10:00pm - - - - - S 20 39 11 21 - - -
27/09:30pm - - - - - S 20 37 11 20 - - -
27/09:00pm - - - - - S 24 37 13 20 - - -
27/08:30pm - - - - - S 22 32 12 17 - - -
27/08:00pm - - - - - S 22 37 12 20 - - -
27/07:30pm - - - - - S 22 37 12 20 - - -
27/07:12pm - - - - - S 28 50 15 27 - - -
27/07:00pm - - - - - S 24 43 13 23 - - -
27/06:30pm - - - - - SSE 30 50 16 27 - - -
27/06:00pm - - - - - S 30 50 16 27 - - -
27/05:33pm - - - - - S 28 50 15 27 - - -
27/05:30pm - - - - - S 28 44 15 24 - - -
27/05:00pm - - - - - S 28 50 15 27 - - -
27/04:45pm - - - - - S 32 50 17 27 - - -
27/04:30pm - - - - - SSE 35 50 19 27 - - -
27/04:00pm - - - - - S 32 50 17 27 - - -
27/03:30pm - - - - - S 30 48 16 26 - - -
27/03:00pm - - - - - S 33 54 18 29 - - -
27/02:30pm - - - - - S 30 48 16 26 - - -
27/02:00pm - - - - - S 32 52 17 28 - - -

Latest Capital City Observations: Canberra | Sydney | Melbourne | Brisbane | Adelaide | Perth | Hobart | Darwin

Other formats

Comma delimited format used in spreadsheet applications
http://www.bom.gov.au/fwo/IDN60901/IDN60901.94769.axf

JavaScript Object Notation format (JSON) in row-major order
http://www.bom.gov.au/fwo/IDN60901/IDN60901.94769.json

Data quality

Most of these data are generated automatically and are frequently updated. Quality checks on data are not normally performed. It is possible for incorrect values to appear. Refer to information at About Latest Weather Observations and please check the disclaimer before using these data.